Latest Weather Observations for Nhill Aerodrome

IDV60801

Issued at 4:52 pm EDT Saturday 5 December 2020 (issued every 10 minutes, with the page automatically refreshed every 10 minutes)

About weather observations | Map of weather stations | Latest weather observations for VIC | Other Formats
Station Details ID: 078015 Name: NHILL AERODROME Lat: -36.31 Lon: 141.65 Height: 138.9 m
Data from the previous 72 hours. | See also: Recent months at Nhill Aerodrome
Date/Time
EDT
Temp
°C
App
Temp
°C
Dew
Point
°C
Rel
Hum
%
Delta-T
°C
Wind Press
QNH
hPa
Press
MSL
hPa
Rain since
9am
mm
Dir  Spd
km/h
Gust
km/h
Spd
kts
Gust
kts
05/04:32pm 20.8 12.6 10.3 51 5.7 WNW 44 65 24 35 997.2 996.7 1.6
05/04:30pm 21.5 13.5 10.6 50 6.0 WNW 43 57 23 31 997.2 996.7 1.6
05/04:00pm 19.9 12.6 13.4 66 3.8 W 44 59 24 32 997.4 996.9 1.6
05/03:38pm 18.9 11.9 13.7 72 3.0 W 43 61 23 33 997.8 997.3 1.6
05/03:30pm 18.7 13.8 14.4 76 2.5 WNW 33 48 18 26 997.7 997.2 1.6
05/03:21pm 18.3 12.6 14.2 77 2.4 W 37 56 20 30 997.6 997.1 1.6
05/03:12pm 18.0 13.0 13.9 77 2.4 WNW 33 56 18 30 997.6 997.1 1.6
05/03:00pm 18.2 15.6 16.0 87 1.3 NW 24 37 13 20 997.6 997.1 1.6
05/02:30pm 17.5 11.8 15.1 86 1.4 WNW 39 52 21 28 997.9 997.4 1.6
05/02:15pm 20.7 13.7 12.4 59 4.7 WNW 41 59 22 32 997.7 997.2 0.2
05/02:09pm 21.8 16.0 12.6 56 5.3 NW 35 54 19 29 997.0 996.5 0.2
05/02:00pm 22.3 16.8 12.3 53 5.7 NNW 33 46 18 25 997.0 996.5 0.2
05/01:55pm 22.1 17.4 12.1 53 5.7 NNW 28 46 15 25 997.2 996.7 0.2
05/01:30pm 20.5 17.5 12.7 61 4.4 NNW 20 28 11 15 997.3 996.8 0.2
05/01:00pm 19.0 16.2 12.5 66 3.7 N 19 26 10 14 998.2 997.7 0.2
05/12:30pm 20.4 17.1 11.6 57 4.9 NNW 20 33 11 18 999.0 998.5 0.0
05/12:00pm 20.3 16.9 10.7 54 5.3 NNW 19 28 10 15 999.1 998.6 0.0
05/11:36am 20.6 15.0 8.6 46 6.3 NNW 28 46 15 25 1000.0 999.5 0.0
05/11:30am 20.5 14.2 8.8 47 6.2 NW 32 46 17 25 1000.2 999.7 0.0
05/11:16am 22.4 13.8 4.9 32 8.7 NW 39 57 21 31 1000.3 999.8 0.0
05/11:00am 25.2 16.3 -1.6 17 12.1 NNW 35 50 19 27 999.9 999.4 0.0
05/10:52am 25.3 17.4 -1.5 17 12.1 NNW 30 50 16 27 999.8 999.3 0.0
05/10:30am 24.9 17.7 -1.8 17 11.9 N 26 39 14 21 1000.0 999.5 0.0
05/10:00am 23.9 18.2 -1.1 19 11.3 NNE 19 32 10 17 999.4 998.9 0.0
05/09:30am 22.5 16.8 -0.9 21 10.4 NNE 19 35 10 19 999.7 999.2 0.0
05/09:00am 21.8 16.1 0.4 24 9.8 NNE 20 35 11 19 1000.3 999.8 0.0
05/08:30am 20.9 15.2 0.7 26 9.2 NE 20 32 11 17 1000.6 1000.1 0.0
05/08:00am 19.9 14.9 1.4 29 8.5 NE 17 32 9 17 1001.5 1001.0 0.0
05/07:30am 19.5 14.2 1.9 31 8.1 NE 19 30 10 16 1001.9 1001.4 0.0
05/07:00am 18.8 13.9 1.8 32 7.8 NE 17 30 9 16 1002.6 1002.1 0.0
05/06:30am 18.4 13.1 1.9 33 7.5 NE 19 32 10 17 1002.7 1002.2 0.0
05/06:00am 18.4 13.0 2.3 34 7.4 NE 20 33 11 18 1002.9 1002.4 0.0
05/05:30am 17.8 12.5 1.7 34 7.3 NE 19 30 10 16 1003.4 1002.9 0.0
05/05:00am 18.1 12.8 1.6 33 7.5 NE 19 28 10 15 1003.9 1003.4 0.0
05/04:30am 18.6 11.9 1.6 32 7.7 NE 26 35 14 19 1004.1 1003.6 0.0
05/04:00am 18.4 13.1 1.9 33 7.6 NE 19 28 10 15 1005.0 1004.6 0.0
05/03:30am 18.0 12.5 1.9 34 7.3 NE 20 28 11 15 1005.3 1004.9 0.0
05/03:00am 18.1 12.2 1.6 33 7.5 ENE 22 30 12 16 1005.7 1005.2 0.0
05/02:30am 17.2 11.3 1.6 35 7.0 ENE 22 28 12 15 1006.1 1005.6 0.0
05/02:00am 17.7 11.6 2.5 36 7.0 ENE 24 35 13 19 1006.8 1006.3 0.0
05/01:30am 17.3 12.2 2.9 38 6.6 E 19 22 10 12 1008.0 1007.5 0.0
05/01:00am 17.7 12.4 3.2 38 6.8 E 20 24 11 13 1008.5 1008.0 0.0
05/12:30am 18.7 13.5 3.3 36 7.2 E 20 26 11 14 1009.2 1008.7 0.0
05/12:00am 18.9 14.3 3.5 36 7.3 E 17 20 9 11 1010.0 1009.5 0.0
 
Date/Time
EDT
Temp
°C
App
Temp
°C
Dew
Point
°C
Rel
Hum
%
Delta-T
°C
Wind Press
QNH
hPa
Press
MSL
hPa
Rain since
9am
mm
Dir  Spd
km/h
Gust
km/h
Spd
kts
Gust
kts
04/11:30pm 20.1 14.9 3.3 33 8.0 ESE 20 26 11 14 1010.5 1010.0 0.0
04/11:00pm 20.6 15.5 3.3 32 8.3 ESE 19 22 10 12 1010.9 1010.5 0.0
04/10:30pm 20.9 16.3 3.6 32 8.3 SE 17 20 9 11 1011.2 1010.8 0.0
04/10:00pm 21.0 16.4 3.7 32 8.3 SE 17 19 9 10 1011.5 1011.1 0.0
04/09:30pm 20.7 16.4 3.0 31 8.4 SSE 15 15 8 8 1011.7 1011.3 0.0
04/09:00pm 21.7 17.6 2.4 28 9.1 S 13 15 7 8 1011.8 1011.4 0.0
04/08:30pm 23.8 20.0 2.0 24 10.4 SSE 11 15 6 8 1011.5 1011.1 0.0
04/08:00pm 26.8 22.7 2.0 20 12.1 S 13 19 7 10 1011.4 1011.0 0.0
04/07:30pm 27.5 23.8 2.6 20 12.3 S 11 19 6 10 1011.1 1010.7 0.0
04/07:00pm 28.0 23.9 2.2 19 12.7 SSW 13 20 7 11 1011.2 1010.8 0.0
04/06:30pm 28.1 25.1 2.3 19 12.7 SSE 7 19 4 10 1011.3 1010.9 0.0
04/06:00pm 28.2 23.3 1.7 18 13.0 SW 17 20 9 11 1011.7 1011.3 0.0
04/05:30pm 28.3 23.1 2.5 19 12.8 SW 19 30 10 16 1012.1 1011.7 0.0
04/05:00pm 28.0 23.0 1.5 18 12.9 SW 17 28 9 15 1012.6 1012.2 0.0
04/04:30pm 28.3 23.5 2.5 19 12.8 SW 17 28 9 15 1013.0 1012.6 0.0
04/04:00pm 28.0 24.0 3.0 20 12.5 WSW 13 22 7 12 1013.6 1013.1 0.0
04/03:30pm 27.4 23.0 2.5 20 12.3 WSW 15 24 8 13 1014.1 1013.6 0.0
04/03:00pm 26.5 22.0 2.4 21 11.8 WSW 15 24 8 13 1014.8 1014.3 0.0
04/02:30pm 26.8 22.0 2.7 21 11.9 WSW 17 28 9 15 1015.3 1014.8 0.0
04/02:00pm 25.5 21.6 3.5 24 10.9 W 13 24 7 13 1015.9 1015.4 0.0
04/01:30pm 24.9 21.0 3.5 25 10.6 SSW 13 20 7 11 1016.5 1016.0 0.0
04/01:00pm 24.0 19.9 4.4 28 9.8 SSW 15 26 8 14 1016.9 1016.5 0.0
04/12:30pm 23.2 18.7 4.2 29 9.4 S 17 24 9 13 1017.3 1016.9 0.0
04/12:00pm 21.9 18.4 5.3 34 8.3 SSE 13 20 7 11 1017.5 1017.1 0.0
04/11:30am 20.3 17.1 5.1 37 7.5 SSW 11 19 6 10 1018.0 1017.6 0.0
04/11:00am 19.8 16.5 6.2 41 6.8 SSW 13 24 7 13 1018.1 1017.7 0.0
04/10:30am 18.8 15.5 6.6 45 6.1 S 13 26 7 14 1018.4 1018.0 0.0
04/10:00am 16.9 12.9 6.7 51 5.1 S 17 24 9 13 1018.7 1018.3 0.0
04/09:30am 16.3 12.8 7.3 55 4.5 S 15 24 8 13 1018.9 1018.5 0.0
04/09:00am 15.0 11.1 7.3 60 3.8 S 17 24 9 13 1018.9 1018.5 0.2
04/08:30am 13.9 10.1 7.4 65 3.2 S 17 24 9 13 1018.9 1018.5 -
04/08:00am 12.2 9.1 7.3 72 2.4 S 13 19 7 10 1018.4 1018.0 -
04/07:30am 10.9 8.1 6.8 76 2.0 S 11 15 6 8 1018.1 1017.7 -
04/07:00am 9.1 7.1 6.2 82 1.3 SSW 6 7 3 4 1017.8 1017.4 -
04/06:30am 7.6 4.9 5.6 87 0.9 SSW 9 9 5 5 1017.7 1017.3 -
04/06:00am 7.8 5.4 5.4 85 1.1 SSW 7 9 4 5 1017.2 1016.8 -
04/05:30am 8.2 5.9 5.7 84 1.1 SSW 7 9 4 5 1017.1 1016.7 -
04/05:00am 8.2 5.5 5.5 83 1.2 SSW 9 11 5 6 1016.9 1016.5 -
04/04:30am 8.4 6.2 5.5 82 1.3 SSW 6 7 3 4 1016.6 1016.1 -
04/04:00am 9.0 8.1 5.9 81 1.4 CALM 0 7 0 4 1016.7 1016.2 -
04/03:30am 9.2 8.2 5.8 79 1.6 CALM 0 0 0 0 1016.6 1016.1 -
04/03:00am 10.0 7.4 6.2 77 1.8 SSW 9 13 5 7 1016.9 1016.5 0.0
04/02:30am 10.3 8.1 6.1 75 2.0 SW 7 9 4 5 1017.0 1016.6 -
04/02:00am 11.4 8.9 6.5 72 2.3 SSW 9 11 5 6 1017.2 1016.8 -
04/01:30am 12.1 9.0 7.2 72 2.4 SSW 13 17 7 9 1017.4 1017.0 -
04/01:00am 13.0 9.5 7.2 68 2.8 S 15 17 8 9 1017.5 1017.1 -
04/12:30am 14.3 10.9 7.6 64 3.3 S 15 19 8 10 1017.6 1017.2 -
04/12:00am 15.1 10.8 7.2 59 3.9 S 19 22 10 12 1017.7 1017.3 -
 
Date/Time
EDT
Temp
°C
App
Temp
°C
Dew
Point
°C
Rel
Hum
%
Delta-T
°C
Wind Press
QNH
hPa
Press
MSL
hPa
Rain since
9am
mm
Dir  Spd
km/h
Gust
km/h
Spd
kts
Gust
kts
03/11:30pm 14.7 10.8 5.2 53 4.5 SSW 15 19 8 10 1017.9 1017.5 -
03/11:00pm 15.9 12.7 5.2 49 5.1 S 11 17 6 9 1017.9 1017.5 -
03/10:30pm 17.6 13.2 4.6 42 6.2 SSW 17 22 9 12 1017.9 1017.5 -
03/10:00pm 18.2 13.5 2.9 36 7.1 SSW 17 20 9 11 1017.6 1017.2 -
03/09:30pm 20.0 14.5 0.5 27 8.8 SSW 19 24 10 13 1017.3 1016.9 -
03/09:00pm 21.3 14.7 -0.1 24 9.6 SW 24 33 13 18 1017.1 1016.7 0.2
03/08:30pm 23.2 15.1 -0.3 21 10.7 SW 32 41 17 22 1016.8 1016.3 -
03/08:00pm 26.0 19.2 -5.6 12 13.3 W 22 32 12 17 1016.3 1015.8 -
03/07:30pm 26.9 19.4 -4.9 12 13.7 W 26 33 14 18 1016.1 1015.6 -
03/07:00pm 27.6 20.1 -4.3 12 13.9 W 26 37 14 20 1016.0 1015.5 -
03/06:30pm 27.7 21.0 -4.3 12 14.0 WNW 22 33 12 18 1015.8 1015.3 -
03/06:00pm 27.7 22.6 -2.2 14 13.6 WNW 15 28 8 15 1015.8 1015.3 -
03/05:30pm 28.1 21.3 -1.9 14 13.7 WNW 24 35 13 19 1016.2 1015.7 -
03/05:00pm 28.2 23.2 -0.9 15 13.6 NW 15 26 8 14 1016.4 1015.9 -
03/04:30pm 28.4 22.7 -0.7 15 13.7 WNW 19 30 10 16 1016.9 1016.5 -
03/04:00pm 27.8 21.8 -1.2 15 13.4 NW 20 35 11 19 1017.5 1017.1 -
03/03:30pm 28.3 22.3 -1.7 14 13.8 W 20 33 11 18 1017.9 1017.5 -
03/03:00pm 26.4 20.3 0.2 18 12.3 W 22 37 12 20 1018.5 1018.1 -
03/02:30pm 26.3 20.8 1.6 20 11.9 NW 20 32 11 17 1018.9 1018.5 -
03/02:00pm 25.5 20.0 1.6 21 11.4 NW 20 35 11 19 1019.2 1018.8 0.0
03/01:30pm 24.3 19.1 2.5 24 10.5 NW 19 32 10 17 1019.7 1019.3 0.0
03/01:00pm 23.4 18.6 2.8 26 9.9 NNW 17 33 9 18 1020.1 1019.7 0.0
03/12:30pm 23.6 18.9 3.0 26 10.0 NW 17 28 9 15 1020.5 1020.1 0.0
03/12:00pm 21.8 18.0 3.9 31 8.7 N 13 22 7 12 1021.0 1020.5 0.0
03/11:30am 21.4 18.4 4.0 32 8.5 ENE 9 19 5 10 1021.4 1020.9 0.0
03/11:00am 20.0 16.5 3.7 34 7.8 NNE 11 17 6 9 1021.7 1021.2 0.0
03/10:30am 18.9 15.2 4.3 38 7.0 NE 13 20 7 11 1021.9 1021.4 0.0
03/10:00am 18.1 14.2 5.3 43 6.2 NE 15 24 8 13 1022.3 1021.8 0.0
03/09:30am 17.1 13.6 5.4 46 5.7 NE 13 20 7 11 1022.8 1022.3 0.0
03/09:00am 15.6 11.2 4.9 49 5.1 ENE 17 26 9 14 1023.0 1022.5 0.0
03/08:30am 14.0 9.2 4.9 54 4.3 E 19 24 10 13 1022.7 1022.2 0.0
03/08:00am 12.8 8.0 4.8 58 3.7 E 19 26 10 14 1022.4 1021.9 0.0
03/07:30am 10.3 6.3 4.9 69 2.5 ESE 15 20 8 11 1022.2 1021.7 0.0
03/07:00am 8.7 5.1 4.9 77 1.7 ESE 13 17 7 9 1022.3 1021.8 0.0
03/06:30am 6.9 3.5 3.9 81 1.3 ESE 11 11 6 6 1022.2 1021.7 0.0
03/06:00am 6.1 3.5 3.4 83 1.1 SE 6 7 3 4 1022.1 1021.6 0.0
03/05:30am 6.3 4.1 3.5 82 1.2 SE 4 7 2 4 1021.8 1021.3 0.0
03/05:00am 6.4 3.7 3.6 82 1.2 SE 7 9 4 5 1021.4 1020.9 0.0
03/04:30am 6.9 3.5 4.0 82 1.3 SE 11 13 6 7 1021.3 1020.8 0.0
03/04:00am 7.2 3.8 4.2 81 1.3 SSE 11 15 6 8 1021.6 1021.1 0.0
03/03:30am 7.2 3.8 4.0 80 1.4 SSE 11 13 6 7 1021.8 1021.3 0.0
03/03:00am 7.6 4.2 3.8 77 1.6 SSE 11 13 6 7 1022.0 1021.5 0.0
03/02:30am 8.6 5.7 4.6 76 1.8 SE 9 11 5 6 1022.1 1021.6 0.0
03/02:00am 8.6 5.2 4.2 74 1.9 SSE 11 13 6 7 1022.4 1021.9 0.0
03/01:30am 9.4 5.7 4.4 71 2.2 SSE 13 15 7 8 1022.7 1022.2 0.0
03/01:00am 10.6 5.8 4.7 67 2.7 SSE 19 22 10 12 1022.9 1022.4 0.0
03/12:30am 10.8 6.7 4.3 64 2.9 SSE 15 20 8 11 1023.2 1022.8 0.0
03/12:00am 11.3 6.7 3.8 60 3.3 SSE 17 20 9 11 1023.4 1023.0 0.0
 
Date/Time
EDT
Temp
°C
App
Temp
°C
Dew
Point
°C
Rel
Hum
%
Delta-T
°C
Wind Press
QNH
hPa
Press
MSL
hPa
Rain since
9am
mm
Dir  Spd
km/h
Gust
km/h
Spd
kts
Gust
kts
02/11:30pm 11.6 7.4 3.6 58 3.6 SSE 15 17 8 9 1023.6 1023.2 0.0
02/11:00pm 12.0 8.1 3.5 56 3.8 S 13 15 7 8 1023.7 1023.3 0.0
02/10:30pm 12.9 9.0 3.3 52 4.3 SSE 13 15 7 8 1023.8 1023.4 0.0
02/10:00pm 14.1 10.2 3.3 48 4.9 SSE 13 15 7 8 1023.6 1023.2 0.0
02/09:30pm 15.8 11.6 3.6 44 5.6 S 15 17 8 9 1023.3 1022.9 0.0
02/09:00pm 16.8 12.5 3.1 40 6.3 S 15 17 8 9 1023.1 1022.6 0.0
02/08:30pm 18.4 13.7 3.1 36 7.1 SSW 17 22 9 12 1022.9 1022.4 0.0
02/08:00pm 19.9 14.8 3.2 33 7.9 S 19 24 10 13 1022.6 1022.1 0.0
02/07:30pm 20.8 16.0 2.6 30 8.6 S 17 24 9 13 1022.4 1021.9 0.0
02/07:00pm 21.3 18.0 2.6 29 8.8 SW 9 17 5 9 1022.1 1021.6 0.0
02/06:30pm 21.6 17.9 2.3 28 9.1 SSW 11 24 6 13 1022.0 1021.5 0.0
02/06:00pm 22.0 17.1 2.2 27 9.3 SW 17 28 9 15 1022.3 1021.8 0.0
02/05:30pm 21.6 17.1 2.3 28 9.1 SW 15 26 8 14 1022.5 1022.0 0.0
02/05:00pm 21.5 17.4 2.2 28 9.0 WSW 13 26 7 14 1022.6 1022.1 0.0

Other formats

Comma delimited format used in spreadsheet applications
http://www.bom.gov.au/fwo/IDV60801/IDV60801.94827.axf

JavaScript Object Notation format (JSON) in row-major order
http://www.bom.gov.au/fwo/IDV60801/IDV60801.94827.json

Data quality

Most of these data are generated automatically and are frequently updated. Quality checks on data are not normally performed. It is possible for incorrect values to appear. Refer to information at About Latest Weather Observations and please check the disclaimer before using these data.